CLT TRACON Summary / KCLT TAF
CLT TRACON Summary:
High pressure continues to build across the Carolinas. Expect VFR conditions with mostly clear skies, and patchy frost may result in defrosting operations this morning. Surface winds will be from the north to northeast at 5-10kts, gusting to 15-20kts. Expect ocnl LGT-MOD turbulence below 090 in the TRACON airspace.

Updated:4/16/2014 6:08 AM
CLT Terminal Aerodrome Forecast:

FTUS42 KGSP 160800 AAA
TAFCLT
TAF AMD
KCLT 160857Z 1609/1706 02009KT P6SM SKC
     FM161300 03012G20KT P6SM SKC
     FM161800 06010KT P6SM SKC=
CLT TRACON Area Remark:
None.
Convective Gate Forecast / Collaborative Convective Forecast Product / Vertical Wind Profile
Convective Gate Forecast
-->
AIRMETs & SIGMETS/ Southeast Radar loop / Satellite Image (click on image to enlarge)

Southeast Radar Loop

 



USA.gov is the U.S. government's official web portal to all federal, state and local government web resources and services.